createdAt,value
2023-10-14T00:00:28.310Z,94108.25
2023-10-14T00:01:33.223Z,94112.50
2023-10-14T00:02:30.057Z,94104.28
2023-10-14T00:03:36.371Z,94099.38
2023-10-14T00:04:33.180Z,94097.91
2023-10-14T00:05:29.972Z,94103.00
2023-10-14T00:06:27.911Z,94109.53
2023-10-14T00:07:27.067Z,94096.63
2023-10-14T00:08:27.680Z,94103.19
2023-10-14T00:09:25.944Z,94095.16
2023-10-14T00:10:23.776Z,94096.34
2023-10-14T00:11:22.715Z,94095.53
2023-10-14T00:12:21.697Z,94091.41
2023-10-14T00:13:18.717Z,94084.19
2023-10-14T00:14:19.821Z,94097.31
2023-10-14T00:15:16.537Z,94093.47
2023-10-14T00:16:25.593Z,94086.94
2023-10-14T00:17:22.451Z,94086.19
2023-10-14T00:18:19.041Z,94086.38
2023-10-14T00:19:15.981Z,94087.22
2023-10-14T00:20:12.963Z,94091.31
2023-10-14T00:21:13.526Z,94095.66
2023-10-14T00:22:10.212Z,94092.78
2023-10-14T00:23:07.081Z,94087.38
2023-10-14T00:24:06.855Z,94091.44
2023-10-14T00:25:04.125Z,94092.84
2023-10-14T00:26:00.860Z,94085.31
2023-10-14T00:26:58.868Z,94081.53
2023-10-14T00:27:55.663Z,94089.50
2023-10-14T00:29:11.263Z,94081.22
2023-10-14T00:30:11.247Z,94084.13
2023-10-14T00:31:08.835Z,94083.97
2023-10-14T00:32:05.854Z,94082.91
2023-10-14T00:33:04.661Z,94088.78
2023-10-14T00:34:01.406Z,94086.81
2023-10-14T00:34:58.181Z,94082.91
2023-10-14T00:35:57.390Z,94076.03
2023-10-14T00:37:00.004Z,94084.69
2023-10-14T00:37:57.108Z,94072.22
2023-10-14T00:38:59.707Z,94075.63
2023-10-14T00:40:02.630Z,94072.25
2023-10-14T00:41:00.642Z,94065.34
2023-10-14T00:42:00.805Z,94078.63
2023-10-14T00:42:58.921Z,94064.81
2023-10-14T00:43:58.110Z,94077.59
2023-10-14T00:44:54.710Z,94075.09
2023-10-14T00:45:51.439Z,94080.53
2023-10-14T00:46:52.027Z,94073.88
2023-10-14T00:47:49.975Z,94072.75
2023-10-14T00:48:48.194Z,94069.50
2023-10-14T00:49:47.016Z,94065.84
2023-10-14T00:50:43.817Z,94067.75
2023-10-14T00:51:46.165Z,94067.41
2023-10-14T00:52:45.543Z,94065.84
2023-10-14T00:54:06.149Z,94063.28
2023-10-14T00:55:14.356Z,94062.13
2023-10-14T00:56:16.610Z,94067.88
2023-10-14T00:57:19.381Z,94069.25
2023-10-14T00:58:22.485Z,94063.16
2023-10-14T00:59:19.814Z,94061.53
2023-10-14T01:00:23.654Z,94063.53
2023-10-14T01:01:20.809Z,94054.81
2023-10-14T01:02:38.655Z,94057.47
2023-10-14T01:03:35.850Z,94057.69
2023-10-14T01:04:35.674Z,94061.03
2023-10-14T01:05:33.236Z,94052.66
2023-10-14T01:06:36.210Z,94057.25
2023-10-14T01:07:32.913Z,94052.22
2023-10-14T01:08:30.925Z,94056.78
2023-10-14T01:09:41.386Z,94049.28
2023-10-14T01:10:40.358Z,94038.03
2023-10-14T01:11:42.879Z,94047.50
2023-10-14T01:12:43.724Z,94049.00
2023-10-14T01:13:41.221Z,94049.47
2023-10-14T01:14:38.967Z,94047.22
2023-10-14T01:15:43.299Z,94043.06
2023-10-14T01:16:42.484Z,94043.50
2023-10-14T01:17:39.385Z,94037.88
2023-10-14T01:18:40.840Z,94038.66
2023-10-14T01:19:38.961Z,94034.63
2023-10-14T01:20:39.267Z,94040.31
2023-10-14T01:21:41.811Z,94042.22
2023-10-14T01:22:41.758Z,94035.50
2023-10-14T01:23:38.920Z,94043.94
2023-10-14T01:24:39.858Z,94042.66
2023-10-14T01:25:43.203Z,94036.34
2023-10-14T01:26:50.108Z,94043.16
2023-10-14T01:27:46.833Z,94041.38
2023-10-14T01:28:53.755Z,94035.34
2023-10-14T01:29:52.953Z,94034.91
2023-10-14T01:31:30.273Z,94027.88
2023-10-14T01:32:40.627Z,94033.13
2023-10-14T01:33:37.807Z,94031.22
2023-10-14T01:34:43.361Z,94035.41
2023-10-14T01:35:44.854Z,94030.38
2023-10-14T01:36:42.573Z,94034.28
2023-10-14T01:37:47.516Z,94034.28
2023-10-14T01:38:52.370Z,94030.56
2023-10-14T01:39:58.319Z,94030.50
2023-10-14T01:40:55.063Z,94027.88
2023-10-14T01:41:54.824Z,94026.25
2023-10-14T01:42:59.660Z,94030.66
2023-10-14T01:43:58.662Z,94032.13
2023-10-14T01:44:55.324Z,94029.00
2023-10-14T01:46:02.034Z,94030.38
2023-10-14T01:46:59.067Z,94034.72
2023-10-14T01:48:12.921Z,94034.59
2023-10-14T01:49:17.620Z,94020.81
2023-10-14T01:50:14.398Z,94034.19
2023-10-14T01:51:11.118Z,94028.84
2023-10-14T01:52:10.741Z,94028.94
2023-10-14T01:53:14.315Z,94033.59
2023-10-14T01:54:11.585Z,94032.28
2023-10-14T01:55:10.346Z,94028.59
2023-10-14T01:56:07.901Z,94031.16
2023-10-14T01:57:06.612Z,94029.50
2023-10-14T01:58:04.253Z,94009.09
2023-10-14T01:59:01.417Z,94025.03
2023-10-14T01:59:58.446Z,94020.81
2023-10-14T02:01:24.384Z,94026.50
2023-10-14T02:02:22.779Z,94026.44
2023-10-14T02:03:23.332Z,94019.34
2023-10-14T02:04:20.790Z,94026.69
2023-10-14T02:05:17.914Z,94022.53
2023-10-14T02:06:19.359Z,94023.25
2023-10-14T02:07:22.385Z,94020.41
2023-10-14T02:08:22.913Z,94013.19
2023-10-14T02:09:20.990Z,94018.91
2023-10-14T02:10:18.031Z,94017.63
2023-10-14T02:11:17.902Z,94014.63
2023-10-14T02:12:14.602Z,94015.63
2023-10-14T02:13:11.376Z,94014.34
2023-10-14T02:14:10.164Z,94018.13
2023-10-14T02:15:09.384Z,94012.03
2023-10-14T02:16:09.519Z,94020.56
2023-10-14T02:17:06.494Z,94015.66
2023-10-14T02:18:05.310Z,94012.47
2023-10-14T02:19:18.640Z,94016.63
2023-10-14T02:20:21.312Z,94014.03
2023-10-14T02:21:19.346Z,94012.41
2023-10-14T02:22:18.267Z,94019.81
2023-10-14T02:23:14.909Z,94012.97
2023-10-14T02:24:11.959Z,94018.00
2023-10-14T02:25:08.883Z,94005.53
2023-10-14T02:26:09.716Z,94010.38
2023-10-14T02:27:13.733Z,94014.28
2023-10-14T02:28:15.748Z,94015.66
2023-10-14T02:29:16.629Z,94011.88
2023-10-14T02:30:13.482Z,94011.50
2023-10-14T02:31:33.096Z,94017.78
2023-10-14T02:32:29.835Z,94017.75
2023-10-14T02:33:26.741Z,94012.81
2023-10-14T02:34:23.481Z,94009.59
2023-10-14T02:35:20.137Z,94014.28
2023-10-14T02:36:17.852Z,94016.78
2023-10-14T02:37:15.470Z,94011.31
2023-10-14T02:38:12.597Z,94012.63
2023-10-14T02:39:18.864Z,94019.63
2023-10-14T02:40:25.118Z,94013.94
2023-10-14T02:41:22.554Z,94011.19
2023-10-14T02:42:19.396Z,94009.88
2023-10-14T02:43:18.250Z,94014.81
2023-10-14T02:44:15.144Z,94014.47
2023-10-14T02:45:13.747Z,94011.53
2023-10-14T02:46:12.984Z,94011.88
2023-10-14T02:47:10.520Z,94012.13
2023-10-14T02:48:07.497Z,94010.66
2023-10-14T02:49:04.312Z,94015.31
2023-10-14T02:50:09.244Z,94013.06
2023-10-14T02:51:07.564Z,94016.34
2023-10-14T02:52:12.257Z,94010.88
2023-10-14T02:53:09.057Z,94013.16
2023-10-14T02:54:14.287Z,94011.22
2023-10-14T02:55:26.936Z,94011.94
2023-10-14T02:56:34.487Z,94016.25
2023-10-14T02:57:31.130Z,94020.66
2023-10-14T02:58:30.845Z,94016.00
2023-10-14T02:59:44.761Z,94019.22
2023-10-14T03:00:41.751Z,94007.38
2023-10-14T03:01:41.901Z,94018.75
2023-10-14T03:02:50.123Z,94013.16
2023-10-14T03:03:47.956Z,93974.72
2023-10-14T03:04:55.436Z,94000.84
2023-10-14T03:05:52.678Z,93997.31
2023-10-14T03:06:55.024Z,94001.88
2023-10-14T03:07:52.154Z,94010.56
2023-10-14T03:09:04.414Z,94007.81
2023-10-14T03:10:18.458Z,94011.59
2023-10-14T03:11:18.401Z,94011.97
2023-10-14T03:12:20.021Z,94001.16
2023-10-14T03:13:16.678Z,94005.59
2023-10-14T03:14:13.450Z,94005.13
2023-10-14T03:15:21.018Z,94006.00
2023-10-14T03:16:18.690Z,93998.78
2023-10-14T03:17:37.324Z,94007.66
2023-10-14T03:18:39.887Z,94017.19
2023-10-14T03:19:36.480Z,94010.94
2023-10-14T03:20:57.807Z,94000.38
2023-10-14T03:21:59.961Z,94011.19
2023-10-14T03:23:19.192Z,94013.47
2023-10-14T03:24:18.588Z,94015.50
2023-10-14T03:25:18.253Z,94013.75
2023-10-14T03:26:15.338Z,94016.13
2023-10-14T03:27:12.296Z,94016.66
2023-10-14T03:28:13.702Z,94008.66
2023-10-14T03:29:17.348Z,94000.81
2023-10-14T03:30:14.271Z,94017.56
2023-10-14T03:31:16.072Z,94003.59
2023-10-14T03:32:12.900Z,94016.78
2023-10-14T03:33:10.653Z,94010.66
2023-10-14T03:34:10.688Z,94012.88
2023-10-14T03:35:13.148Z,94013.22
2023-10-14T03:36:16.591Z,94007.09
2023-10-14T03:37:27.059Z,94004.94
2023-10-14T03:38:34.672Z,94001.72
2023-10-14T03:39:47.347Z,94004.56
2023-10-14T03:40:49.665Z,94000.44
2023-10-14T03:41:53.091Z,94010.50
2023-10-14T03:42:53.777Z,94013.78
2023-10-14T03:43:57.786Z,94010.72
2023-10-14T03:44:59.223Z,93978.19
2023-10-14T03:45:57.847Z,94004.69
2023-10-14T03:47:01.850Z,94005.66
2023-10-14T03:48:03.289Z,94005.13
2023-10-14T03:49:10.736Z,93993.75
2023-10-14T03:50:08.594Z,94002.38
2023-10-14T03:51:05.266Z,94003.75
2023-10-14T03:52:01.915Z,94001.53
2023-10-14T03:52:59.056Z,93997.06
2023-10-14T03:54:08.041Z,93994.19
2023-10-14T03:55:09.891Z,93998.94
2023-10-14T03:56:07.928Z,93998.50
2023-10-14T03:57:04.863Z,93997.72
2023-10-14T03:58:04.946Z,93994.19
2023-10-14T03:59:03.029Z,93994.97
2023-10-14T04:00:09.936Z,94000.56
2023-10-14T04:01:06.907Z,93990.59
2023-10-14T04:02:06.814Z,93997.56
2023-10-14T04:03:14.114Z,93993.00
2023-10-14T04:04:21.642Z,93997.53
2023-10-14T04:05:20.341Z,93989.34
2023-10-14T04:06:16.961Z,93989.72
2023-10-14T04:07:13.674Z,93980.41
2023-10-14T04:08:10.413Z,93993.44
2023-10-14T04:09:11.853Z,93986.78
2023-10-14T04:10:11.150Z,93987.91
2023-10-14T04:11:17.049Z,93987.03
2023-10-14T04:12:43.337Z,93992.09
2023-10-14T04:14:12.627Z,93992.88
2023-10-14T04:15:15.728Z,93995.41
2023-10-14T04:16:14.035Z,93992.50
2023-10-14T04:17:21.145Z,93996.53
2023-10-14T04:18:25.432Z,93997.44
2023-10-14T04:19:28.071Z,93994.84
2023-10-14T04:20:31.222Z,93987.88
2023-10-14T04:21:38.298Z,93995.06
2023-10-14T04:22:40.118Z,93994.59
2023-10-14T04:23:39.665Z,93968.22
2023-10-14T04:24:36.313Z,93994.53
2023-10-14T04:25:43.081Z,93995.91
2023-10-14T04:26:42.437Z,93990.97
2023-10-14T04:27:52.600Z,93993.34
2023-10-14T04:28:55.264Z,93991.38
2023-10-14T04:30:03.625Z,93994.41
2023-10-14T04:31:08.323Z,93993.38
2023-10-14T04:32:26.398Z,93989.00
2023-10-14T04:33:35.642Z,93987.97
2023-10-14T04:34:32.361Z,93988.94
2023-10-14T04:35:34.484Z,93991.81
2023-10-14T04:36:36.813Z,93989.56
2023-10-14T04:37:51.888Z,93984.81
2023-10-14T04:39:05.710Z,93993.50
2023-10-14T04:40:17.089Z,93986.41
2023-10-14T04:41:25.321Z,93992.94
2023-10-14T04:42:21.986Z,93990.03
2023-10-14T04:43:18.801Z,93986.47
2023-10-14T04:44:15.681Z,93987.91
2023-10-14T04:45:14.731Z,93986.03
2023-10-14T04:46:14.403Z,93929.50
2023-10-14T04:47:21.398Z,93992.19
2023-10-14T04:48:28.738Z,93988.06
2023-10-14T04:49:38.575Z,93992.59
2023-10-14T04:50:40.115Z,93985.88
2023-10-14T04:51:46.804Z,93988.53
2023-10-14T04:52:49.512Z,93985.09
2023-10-14T04:53:51.123Z,93987.69
2023-10-14T04:55:01.478Z,93986.94
2023-10-14T04:56:02.362Z,93991.91
2023-10-14T04:56:59.268Z,93990.72
2023-10-14T04:58:12.681Z,93988.53
2023-10-14T04:59:09.713Z,93985.25
2023-10-14T05:00:09.780Z,93987.50
2023-10-14T05:01:10.781Z,93990.69
2023-10-14T05:02:12.986Z,93983.78
2023-10-14T05:03:14.308Z,93993.13
2023-10-14T05:04:11.057Z,93997.72
2023-10-14T05:05:08.525Z,93994.78
2023-10-14T05:06:16.252Z,94001.22
2023-10-14T05:07:13.023Z,93982.28
2023-10-14T05:08:15.722Z,93990.81
2023-10-14T05:09:30.845Z,93997.72
2023-10-14T05:10:29.739Z,94005.47
2023-10-14T05:11:27.553Z,93983.44
2023-10-14T05:12:26.655Z,93989.63
2023-10-14T05:13:36.828Z,93980.75
2023-10-14T05:14:38.401Z,93997.75
2023-10-14T05:15:40.796Z,94000.66
2023-10-14T05:17:01.949Z,93994.25
2023-10-14T05:18:01.965Z,94006.53
2023-10-14T05:19:04.969Z,93999.44
2023-10-14T05:20:01.654Z,94004.88
2023-10-14T05:21:11.125Z,94000.19
2023-10-14T05:22:20.209Z,94000.19
2023-10-14T05:23:21.138Z,94009.78
2023-10-14T05:24:17.794Z,94005.53
2023-10-14T05:25:18.191Z,94002.97
2023-10-14T05:26:15.692Z,94006.06
2023-10-14T05:27:12.797Z,94008.03
2023-10-14T05:28:09.607Z,94010.16
2023-10-14T05:29:18.370Z,93983.69
2023-10-14T05:30:23.053Z,94014.69
2023-10-14T05:31:20.110Z,94008.13
2023-10-14T05:32:16.972Z,94018.06
2023-10-14T05:33:15.391Z,94014.06
2023-10-14T05:34:12.282Z,94015.09
2023-10-14T05:35:11.344Z,94004.03
2023-10-14T05:36:08.379Z,94010.31
2023-10-14T05:37:10.477Z,94009.22
2023-10-14T05:38:13.325Z,94012.03
2023-10-14T05:39:11.428Z,94010.97
2023-10-14T05:40:15.104Z,94002.03
2023-10-14T05:41:12.832Z,94018.31
2023-10-14T05:42:23.264Z,94024.59
2023-10-14T05:43:23.116Z,94020.50
2023-10-14T05:44:19.831Z,94023.25
2023-10-14T05:45:16.494Z,94013.88
2023-10-14T05:46:13.762Z,94012.75
2023-10-14T05:47:11.729Z,94025.53
2023-10-14T05:48:11.989Z,94025.00
2023-10-14T05:49:09.379Z,94015.22
2023-10-14T05:50:09.452Z,94018.84
2023-10-14T05:51:06.221Z,94029.53
2023-10-14T05:52:02.933Z,94024.09
2023-10-14T05:53:02.419Z,94033.75
2023-10-14T05:53:59.398Z,94031.16
2023-10-14T05:54:57.024Z,94020.31
2023-10-14T05:56:10.948Z,94029.88
2023-10-14T05:57:10.556Z,94032.25
2023-10-14T05:58:08.908Z,94030.53
2023-10-14T05:59:07.470Z,94024.25
2023-10-14T06:00:13.617Z,94037.91
2023-10-14T06:01:14.899Z,94029.56
2023-10-14T06:02:14.541Z,94038.63
2023-10-14T06:03:13.603Z,93989.84
2023-10-14T06:04:14.156Z,94037.47
2023-10-14T06:05:10.976Z,94033.72
2023-10-14T06:06:11.120Z,94035.19
2023-10-14T06:07:16.440Z,94029.81
2023-10-14T06:08:18.890Z,94033.34
2023-10-14T06:09:18.120Z,94033.88
2023-10-14T06:10:25.053Z,94014.81
2023-10-14T06:11:21.926Z,94034.03
2023-10-14T06:12:19.738Z,94039.03
2023-10-14T06:13:16.547Z,94030.97
2023-10-14T06:14:13.855Z,94029.22
2023-10-14T06:15:10.739Z,94030.31
2023-10-14T06:16:15.370Z,94027.41
2023-10-14T06:17:13.225Z,94033.53
2023-10-14T06:18:10.219Z,94034.69
2023-10-14T06:19:07.203Z,94038.69
2023-10-14T06:20:06.107Z,94045.19
2023-10-14T06:21:02.817Z,94032.47
2023-10-14T06:22:00.569Z,94039.50
2023-10-14T06:23:00.322Z,94038.41
2023-10-14T06:23:57.092Z,94033.25
2023-10-14T06:24:54.921Z,94028.06
2023-10-14T06:25:51.723Z,94026.44
2023-10-14T06:26:48.376Z,94034.53
2023-10-14T06:27:46.856Z,94036.56
2023-10-14T06:28:45.035Z,94035.09
2023-10-14T06:29:42.690Z,94034.00
2023-10-14T06:30:39.509Z,94032.84
2023-10-14T06:31:38.848Z,94020.53
2023-10-14T06:32:35.624Z,94019.97
2023-10-14T06:33:32.427Z,94019.03
2023-10-14T06:34:29.335Z,94031.78
2023-10-14T06:35:28.319Z,94032.47
2023-10-14T06:36:27.855Z,94032.09
2023-10-14T06:37:26.201Z,94031.97
2023-10-14T06:38:23.764Z,94030.88
2023-10-14T06:39:27.689Z,94025.22
2023-10-14T06:40:24.403Z,94029.53
2023-10-14T06:41:21.025Z,94032.16
2023-10-14T06:42:20.830Z,94032.50
2023-10-14T06:43:19.261Z,94035.75
2023-10-14T06:44:16.493Z,94039.72
2023-10-14T06:45:15.085Z,94034.56
2023-10-14T06:46:13.411Z,94038.53
2023-10-14T06:47:10.212Z,94039.94
2023-10-14T06:48:11.141Z,94030.84
2023-10-14T06:49:15.023Z,94041.00
2023-10-14T06:50:13.668Z,94039.97
2023-10-14T06:51:10.566Z,94034.72
2023-10-14T06:52:07.220Z,94028.53
2023-10-14T06:53:08.745Z,94031.84
2023-10-14T06:54:05.775Z,94037.00
2023-10-14T06:55:02.394Z,94033.41
2023-10-14T06:56:02.687Z,94034.28
2023-10-14T06:57:03.874Z,94033.13
2023-10-14T06:58:00.546Z,94034.56
2023-10-14T06:58:57.280Z,94035.06
2023-10-14T06:59:55.244Z,94032.13
2023-10-14T07:00:51.932Z,94032.13
2023-10-14T07:01:48.871Z,94033.78
2023-10-14T07:02:45.620Z,94026.75
2023-10-14T07:03:42.896Z,94027.91
2023-10-14T07:04:40.444Z,94029.72
2023-10-14T07:05:58.278Z,94022.34
2023-10-14T07:07:00.302Z,94026.25
2023-10-14T07:07:58.760Z,94012.63
2023-10-14T07:08:55.418Z,94020.97
2023-10-14T07:09:52.161Z,94008.34
2023-10-14T07:10:53.030Z,94025.34
2023-10-14T07:11:49.741Z,94015.34
2023-10-14T07:12:47.965Z,94018.84
2023-10-14T07:13:47.300Z,94015.09
2023-10-14T07:14:47.013Z,94007.41
2023-10-14T07:15:45.322Z,94017.56
2023-10-14T07:16:42.078Z,94016.81
2023-10-14T07:17:38.821Z,94019.03
2023-10-14T07:18:39.331Z,94017.19
2023-10-14T07:19:37.019Z,94022.22
2023-10-14T07:20:33.744Z,94014.16
2023-10-14T07:21:33.174Z,94016.91
2023-10-14T07:22:33.556Z,94016.41
2023-10-14T07:23:35.742Z,94007.47
2023-10-14T07:24:33.602Z,94016.41
2023-10-14T07:25:35.300Z,94011.72
2023-10-14T07:26:37.583Z,94018.25
2023-10-14T07:27:37.031Z,94020.94
2023-10-14T07:28:33.795Z,94020.69
2023-10-14T07:29:30.568Z,94015.78
2023-10-14T07:30:29.178Z,94017.72
2023-10-14T07:31:26.051Z,94012.28
2023-10-14T07:32:23.085Z,94011.16
2023-10-14T07:33:21.500Z,94009.63
2023-10-14T07:34:18.373Z,94010.81
2023-10-14T07:35:18.893Z,94000.00
2023-10-14T07:36:15.561Z,94005.84
2023-10-14T07:37:18.113Z,94003.88
2023-10-14T07:38:15.188Z,94011.97
2023-10-14T07:39:29.695Z,94007.34
2023-10-14T07:40:32.099Z,94002.34
2023-10-14T07:41:28.911Z,94008.91
2023-10-14T07:42:25.619Z,94005.81
2023-10-14T07:43:22.375Z,94000.41
2023-10-14T07:44:20.442Z,94010.03
2023-10-14T07:45:17.188Z,93999.66
2023-10-14T07:46:13.960Z,94003.09
2023-10-14T07:47:12.507Z,94002.72
2023-10-14T07:48:11.140Z,93991.13
2023-10-14T07:49:08.915Z,94007.75
2023-10-14T07:50:10.645Z,94004.28
2023-10-14T07:51:22.185Z,94003.09
2023-10-14T07:52:27.244Z,93999.28
2023-10-14T07:53:24.158Z,93994.59
2023-10-14T07:54:22.884Z,93991.16
2023-10-14T07:55:27.197Z,93991.16
2023-10-14T07:56:24.731Z,93995.38
2023-10-14T07:57:21.465Z,93991.88
2023-10-14T07:58:28.464Z,93965.22
2023-10-14T07:59:25.387Z,93985.75
2023-10-14T08:00:27.406Z,93954.50
2023-10-14T08:01:24.774Z,93986.94
2023-10-14T08:02:21.709Z,93991.91
2023-10-14T08:03:26.269Z,93987.94
2023-10-14T08:04:24.894Z,93984.13
2023-10-14T08:05:21.727Z,93982.97
2023-10-14T08:06:22.465Z,93980.97
2023-10-14T08:07:19.152Z,93986.34
2023-10-14T08:08:15.969Z,93983.72
2023-10-14T08:09:30.101Z,93984.81
2023-10-14T08:10:27.653Z,93970.94
2023-10-14T08:11:24.458Z,93985.19
2023-10-14T08:12:21.608Z,93985.84
2023-10-14T08:13:22.577Z,93981.97
2023-10-14T08:14:19.557Z,93981.34
2023-10-14T08:15:18.874Z,93982.44
2023-10-14T08:16:16.741Z,93984.09
2023-10-14T08:17:13.805Z,93984.94
2023-10-14T08:18:12.594Z,93975.84
2023-10-14T08:19:11.870Z,93983.63
2023-10-14T08:20:13.760Z,93983.19
2023-10-14T08:21:13.366Z,93987.06
2023-10-14T08:22:15.499Z,93984.25
2023-10-14T08:23:13.096Z,93951.13
2023-10-14T08:24:09.944Z,93978.25
2023-10-14T08:25:09.172Z,93974.31
2023-10-14T08:26:14.557Z,93966.88
2023-10-14T08:27:13.466Z,93973.59
2023-10-14T08:28:10.953Z,93979.19
2023-10-14T08:29:07.620Z,93978.81
2023-10-14T08:30:12.386Z,93971.50
2023-10-14T08:31:09.673Z,93970.19
2023-10-14T08:32:06.446Z,93972.03
2023-10-14T08:33:03.718Z,93971.16
2023-10-14T08:34:02.984Z,93969.47
2023-10-14T08:34:59.860Z,93962.19
2023-10-14T08:35:57.753Z,93968.88
2023-10-14T08:36:57.696Z,93957.47
2023-10-14T08:37:55.923Z,93964.06
2023-10-14T08:38:52.573Z,93961.13
2023-10-14T08:39:49.289Z,93955.91
2023-10-14T08:40:50.827Z,93959.41
2023-10-14T08:41:49.272Z,93956.47
2023-10-14T08:42:50.545Z,93957.81
2023-10-14T08:43:51.165Z,93952.81
2023-10-14T08:44:50.483Z,93961.94
2023-10-14T08:45:50.342Z,93952.63
2023-10-14T08:46:49.405Z,93953.00
2023-10-14T08:47:48.421Z,93951.69
2023-10-14T08:48:47.706Z,93946.91
2023-10-14T08:49:46.393Z,93954.22
2023-10-14T08:50:44.010Z,93952.25
2023-10-14T08:51:53.574Z,93955.75
2023-10-14T08:52:57.393Z,93940.69
2023-10-14T08:53:55.741Z,93945.78
2023-10-14T08:54:52.616Z,93945.41
2023-10-14T08:55:50.030Z,93936.47
2023-10-14T08:56:49.620Z,93938.28
2023-10-14T08:57:47.696Z,93942.78
2023-10-14T08:58:44.551Z,93938.09
2023-10-14T08:59:42.842Z,93935.28
2023-10-14T09:00:39.606Z,93935.41
2023-10-14T09:01:37.152Z,93936.34
2023-10-14T09:02:37.913Z,93941.47
2023-10-14T09:03:34.737Z,93944.31
2023-10-14T09:04:31.888Z,93938.91
2023-10-14T09:05:31.425Z,93936.09
2023-10-14T09:06:28.215Z,93943.94
2023-10-14T09:07:24.972Z,93941.69
2023-10-14T09:08:22.246Z,93938.78
2023-10-14T09:09:22.241Z,93935.19
2023-10-14T09:10:21.041Z,93935.88
2023-10-14T09:11:34.971Z,93934.94
2023-10-14T09:12:32.217Z,93932.91
2023-10-14T09:13:29.047Z,93934.44
2023-10-14T09:14:25.992Z,93930.59
2023-10-14T09:15:23.555Z,93935.97
2023-10-14T09:16:29.301Z,93931.41
2023-10-14T09:17:26.138Z,93931.69
2023-10-14T09:18:28.923Z,93927.78
2023-10-14T09:19:25.994Z,93923.97
2023-10-14T09:20:39.809Z,93920.00
2023-10-14T09:21:44.319Z,93928.38
2023-10-14T09:22:41.007Z,93920.00
2023-10-14T09:23:41.386Z,93920.72
2023-10-14T09:24:38.923Z,93922.84
2023-10-14T09:25:41.500Z,93913.81
2023-10-14T09:26:45.467Z,93911.97
2023-10-14T09:27:50.100Z,93913.41
2023-10-14T09:28:46.957Z,93907.53
2023-10-14T09:29:44.916Z,93909.34
2023-10-14T09:30:46.222Z,93914.41
2023-10-14T09:31:48.284Z,93904.97
2023-10-14T09:32:45.063Z,93913.44
2023-10-14T09:33:43.972Z,93898.47
2023-10-14T09:34:43.430Z,93897.78
2023-10-14T09:35:42.785Z,93896.75
2023-10-14T09:36:44.418Z,93885.59
2023-10-14T09:37:41.145Z,93895.28
2023-10-14T09:38:38.369Z,93896.44
2023-10-14T09:39:40.003Z,93899.91
2023-10-14T09:40:37.541Z,93897.69
2023-10-14T09:41:36.585Z,93887.84
2023-10-14T09:42:33.820Z,93887.59
2023-10-14T09:43:35.240Z,93888.16
2023-10-14T09:44:32.931Z,93886.53
2023-10-14T09:45:31.624Z,93889.66
2023-10-14T09:46:29.226Z,93889.34
2023-10-14T09:47:26.993Z,93884.50
2023-10-14T09:48:31.647Z,93869.78
2023-10-14T09:49:29.578Z,93879.63
2023-10-14T09:50:27.970Z,93867.97
2023-10-14T09:51:25.388Z,93868.63
2023-10-14T09:52:22.953Z,93866.88
2023-10-14T09:53:20.216Z,93867.69
2023-10-14T09:54:17.961Z,93871.63
2023-10-14T09:55:17.327Z,93875.38
2023-10-14T09:56:17.231Z,93867.94
2023-10-14T09:57:18.539Z,93869.56
2023-10-14T09:58:19.465Z,93868.25
2023-10-14T09:59:18.283Z,93856.16
2023-10-14T10:00:17.969Z,93857.50
2023-10-14T10:01:16.753Z,93863.00
2023-10-14T10:02:14.093Z,93861.00
2023-10-14T10:03:12.620Z,93855.38
2023-10-14T10:04:25.507Z,93836.94
2023-10-14T10:05:30.256Z,93853.06
2023-10-14T10:06:44.413Z,93845.81
2023-10-14T10:08:01.549Z,93850.84
2023-10-14T10:09:18.587Z,93847.97
2023-10-14T10:10:19.660Z,93850.59
2023-10-14T10:11:24.603Z,93842.53
2023-10-14T10:12:23.847Z,93833.53
2023-10-14T10:13:24.594Z,93833.66
2023-10-14T10:14:22.472Z,93827.66
2023-10-14T10:15:20.933Z,93834.78
2023-10-14T10:16:23.380Z,93835.38
2023-10-14T10:17:23.977Z,93831.22
2023-10-14T10:18:24.072Z,93825.34
2023-10-14T10:19:24.954Z,93823.59
2023-10-14T10:20:28.931Z,93826.22
2023-10-14T10:21:41.562Z,93827.22
2023-10-14T10:22:45.847Z,93818.00
2023-10-14T10:23:42.498Z,93816.72
2023-10-14T10:24:43.153Z,93809.63
2023-10-14T10:25:40.856Z,93810.69
2023-10-14T10:27:09.779Z,93820.34
2023-10-14T10:28:44.989Z,93810.75
2023-10-14T10:29:46.962Z,93805.28
2023-10-14T10:30:48.288Z,93811.50
2023-10-14T10:32:06.185Z,93792.84
2023-10-14T10:33:14.721Z,93800.00
2023-10-14T10:34:11.501Z,93798.38
2023-10-14T10:35:08.425Z,93798.38
2023-10-14T10:36:05.540Z,93795.50
2023-10-14T10:37:05.735Z,93802.28
2023-10-14T10:38:02.498Z,93794.72
2023-10-14T10:39:17.784Z,93791.19
2023-10-14T10:40:19.147Z,93788.81
2023-10-14T10:41:29.061Z,93787.91
2023-10-14T10:42:26.364Z,93779.38
2023-10-14T10:43:23.111Z,93776.22
2023-10-14T10:44:20.471Z,93775.22
2023-10-14T10:45:22.761Z,93779.94
2023-10-14T10:46:38.721Z,93779.72
2023-10-14T10:48:06.181Z,93771.09
2023-10-14T10:49:02.965Z,93771.53
2023-10-14T10:50:04.101Z,93761.25
2023-10-14T10:51:02.834Z,93770.97
2023-10-14T10:52:08.664Z,93774.13
2023-10-14T10:53:08.406Z,93774.03
2023-10-14T10:54:05.391Z,93764.75
2023-10-14T10:55:02.588Z,93771.25
2023-10-14T10:55:59.340Z,93765.72
2023-10-14T10:57:07.260Z,93764.41
2023-10-14T10:58:09.051Z,93757.88
2023-10-14T10:59:05.979Z,93762.69
2023-10-14T11:00:10.341Z,93761.56
2023-10-14T11:01:08.436Z,93760.59
2023-10-14T11:02:12.059Z,93758.38
2023-10-14T11:03:14.769Z,93749.34
2023-10-14T11:04:13.576Z,93751.72
2023-10-14T11:05:10.523Z,93754.16
2023-10-14T11:07:50.014Z,93744.53
2023-10-14T11:08:49.120Z,93741.63
2023-10-14T11:09:53.444Z,93736.91
2023-10-14T11:12:08.029Z,93735.72
2023-10-14T11:13:09.062Z,93737.69
2023-10-14T11:14:18.476Z,93729.91
2023-10-14T11:15:44.417Z,93736.03
2023-10-14T11:16:47.485Z,93728.81
2023-10-14T11:17:48.182Z,93734.06
2023-10-14T11:19:00.758Z,93727.94
2023-10-14T11:19:58.528Z,93720.91
2023-10-14T11:24:03.562Z,93714.63
2023-10-14T11:27:43.156Z,93710.72
2023-10-14T11:28:42.247Z,93711.31
2023-10-14T11:29:42.470Z,93708.22
2023-10-14T11:30:43.384Z,93705.44
2023-10-14T11:31:45.490Z,93687.19
2023-10-14T11:34:04.409Z,93707.09
2023-10-14T11:35:06.440Z,93704.34
2023-10-14T11:36:22.719Z,93701.91
2023-10-14T11:38:32.584Z,93703.91
2023-10-14T11:41:32.585Z,93694.16
2023-10-14T11:42:33.262Z,93697.34
2023-10-14T11:47:55.481Z,93683.97
2023-10-14T11:48:59.200Z,93689.09
2023-10-14T11:49:56.648Z,93685.81
2023-10-14T11:53:14.469Z,93677.41
2023-10-14T11:54:16.170Z,93680.88
2023-10-14T11:56:30.208Z,93680.38
2023-10-14T11:57:27.418Z,93682.22
2023-10-14T11:58:36.748Z,93680.88
2023-10-14T12:01:46.657Z,93674.78
2023-10-14T12:03:12.157Z,93669.97
2023-10-14T12:04:14.688Z,93662.50
2023-10-14T12:05:39.707Z,93665.78
2023-10-14T12:06:36.508Z,93665.31
2023-10-14T12:07:33.950Z,93660.00
2023-10-14T12:08:40.048Z,93661.53
2023-10-14T12:09:36.713Z,93659.69
2023-10-14T12:10:33.355Z,93662.97
2023-10-14T12:11:30.160Z,93660.41
2023-10-14T12:12:28.105Z,93660.97
2023-10-14T12:13:37.704Z,93655.63
2023-10-14T12:14:42.188Z,93659.63
2023-10-14T12:15:38.886Z,93652.94
2023-10-14T12:16:35.598Z,93657.34
2023-10-14T12:17:36.914Z,93648.63
2023-10-14T12:18:36.391Z,93644.63
2023-10-14T12:19:33.045Z,93646.13
2023-10-14T12:20:32.340Z,93652.19